Nearby METAR Reports

 

EDNY - Friedrichshafen, Germany
Distance from station: O 31km
aktuell: 06.07.2015 12:50
teilweise bewölkt
teilweise bewölkt
 Wind von varies
Wind: varies 6 km/h
Temperatur: 26°C
Taupunkt: 17°C
Luftfeuchte: 58%
Luftdruck: 1022 hPa
Clouds: teilweise bewölkt
Visibility: 10 km
Cloud details: teilweise bewölkt 823 m
2015/07/06 10:50 EDNY 061050Z VRB03KT 9999 SCT027 26/17 Q1022 RMK ATIS O
LSZR - Rheineck/Altenrh, Switzerland
Distance from station: SO 42km
aktuell: 06.07.2015 12:50
Few Clouds
Few Clouds
 Wind von N
Wind: N 9 km/h
Temperatur: 25°C
Taupunkt: 20°C
Luftfeuchte: 74%
Luftdruck: 1022 hPa
Clouds: Few Clouds
Visibility: 10 km
Cloud details: Few Clouds 914 m
2015/07/06 10:50 LSZR 061050Z 01005KT 9999 FEW030 25/20 Q1022 NOSIG RMK G
LSZH - Zurich-Kloten (a, Switzerland
Distance from station: WSW 49km
aktuell: 06.07.2015 12:50
Few Clouds
Few Clouds
 Wind von varies
Wind: varies 6 km/h
Temperatur: 27°C
Heat Index: 28°C
Taupunkt: 18°C
Luftfeuchte: 58%
Luftdruck: 1022 hPa
Clouds: Few Clouds
Visibility: 10 km
Cloud details: Few Clouds 1097 m
2015/07/06 10:50 LSZH 061050Z VRB03KT 9999 FEW036 27/18 Q1022 NOSIG
 
EDTD - Donaueschingen, Germany
Distance from station: NW 53km
aktuell: 30.04.2014 18:20
NOT Current
sehr leichter Niederschlag, geschlossene Wolkendecke
sehr leichter Niederschlag, geschlossene Wolkendecke
 Wind von SSW
Wind: SSW 9 km/h
Temperatur: 10°C
gefühlte Temperatur: 9°C
Taupunkt: 10°C
Luftfeuchte: 100%
Luftdruck: 1011 hPa
Zusammenfassung: sehr leichter Niederschlag
Clouds: geschlossene Wolkendecke
Visibility: 9 km
Cloud details: stark bewölkt 213 m
geschlossene Wolkendecke 335 m
2014/04/30 16:20 EDTD 301620Z 20005KT 9000 -RA BKN007 OVC011 10/10 Q1011 LAST ?
ETGZ - Messstetten, Germany
Distance from station: N 54km
aktuell: 30.09.2013 14:20
NOT Current
geschlossene Wolkendecke
geschlossene Wolkendecke
 Wind von varies
Wind: varies 4 km/h
Temperatur: 8°C
Taupunkt: 7°C
Luftfeuchte: 93%
Luftdruck: 1007 hPa
Clouds: geschlossene Wolkendecke
Visibility: 10 km
Cloud details: geschlossene Wolkendecke 213 m
2013/09/30 12:20 ETGZ 301220Z VRB02KT 9999 OVC007 08/07 Q1007 GRN
LOIH - Hohenems-Dornbir, Austria
Distance from station: SO 57km
aktuell: 06.07.2015 13:00
Few Clouds
Few Clouds
 Wind von N
Wind: N 7 km/h
Temperatur: 27°C
Heat Index: 29°C
Taupunkt: 20°C
Luftfeuchte: 66%
Luftdruck: 1022 hPa
Clouds: Few Clouds
Cloud details: Few Clouds 914 m
2015/07/06 11:00 LOIH 061100Z 36004KT 25KM FEW030CU 27/20 Q1022 RMK FEW
 
ETHL - Laupheim (ger-Ar, Germany
Distance from station: NO 84km
aktuell: 06.07.2015 12:20
teilweise bewölkt
teilweise bewölkt
 Wind von SW
Wind: SW 4 km/h
Temperatur: 25°C
Taupunkt: 18°C
Luftfeuchte: 65%
Luftdruck: 1023 hPa
Clouds: teilweise bewölkt
Visibility: 10 km
Cloud details: teilweise bewölkt 914 m
2015/07/06 10:20 ETHL 061020Z 22002KT 9999 SCT030 25/18 Q1023 BLU+BLU+
EDJA - Memmingen Allgau, Germany
Distance from station: ONO 90km
aktuell: 06.07.2015 12:50
stark bewölkt
stark bewölkt
 Wind von varies
Wind: varies 6 km/h
Temperatur: 24°C
Taupunkt: 17°C
Luftfeuchte: 65%
Luftdruck: 1023 hPa
Clouds: stark bewölkt
Visibility: 10 km
Cloud details: stark bewölkt 701 m
2015/07/06 10:50 EDJA 061050Z VRB03KT 9999 BKN023 24/17 Q1023
LSME - Emmen, Switzerland
Distance from station: SW 90km
aktuell: 06.07.2015 12:50
klar
klar
 Wind von NNO
Wind: NNO 6 km/h
Temperatur: 27°C
Heat Index: 28°C
Taupunkt: 19°C
Luftfeuchte: 62%
Luftdruck: 1022 hPa
Clouds: klar
Visibility: 16 miles
2015/07/06 10:50 LSME 061050Z AUTO 03003KT 320V110 9999NDV NCD 27/19 Q1022 RMK BLU
 
LSZC - Buochs, Switzerland
Distance from station: SSW 98km
aktuell: 06.07.2015 12:50
klar
klar
 Wind von OSO
Wind: OSO 9 km/h
Temperatur: 27°C
Heat Index: 28°C
Taupunkt: 19°C
Luftfeuchte: 62%
Luftdruck: 1022 hPa
Zusammenfassung: klar
Visibility: greater than 10 km
2015/07/06 10:50 LSZC 061050Z AUTO 12005KT 090V160 CAVOK 27/19 Q1022